createdAt,value
2023-01-13T00:01:17.249Z,99625.66
2023-01-13T00:03:44.516Z,99606.41
2023-01-13T00:06:20.236Z,99616.09
2023-01-13T00:08:51.272Z,99618.00
2023-01-13T00:11:19.584Z,99605.00
2023-01-13T00:13:46.821Z,99616.69
2023-01-13T00:16:16.860Z,99620.22
2023-01-13T00:18:44.824Z,99630.69
2023-01-13T00:21:16.372Z,99628.47
2023-01-13T00:23:43.977Z,99629.97
2023-01-13T00:26:16.961Z,99636.22
2023-01-13T00:28:43.536Z,99645.34
2023-01-13T00:31:18.586Z,99632.88
2023-01-13T00:33:45.828Z,99632.38
2023-01-13T00:36:14.986Z,99646.06
2023-01-13T00:38:43.322Z,99647.09
2023-01-13T00:41:15.281Z,99677.84
2023-01-13T00:43:42.408Z,99675.13
2023-01-13T00:46:12.112Z,99682.44
2023-01-13T00:48:39.116Z,99679.06
2023-01-13T00:51:08.717Z,99698.16
2023-01-13T00:53:41.182Z,99700.19
2023-01-13T00:56:18.123Z,99668.94
2023-01-13T00:58:45.923Z,99685.53
2023-01-13T01:01:21.661Z,99682.66
2023-01-13T01:03:49.857Z,99688.06
2023-01-13T01:06:22.355Z,99707.16
2023-01-13T01:08:49.769Z,99720.00
2023-01-13T01:11:20.754Z,99740.13
2023-01-13T01:13:47.952Z,99745.22
2023-01-13T01:16:17.772Z,99717.84
2023-01-13T01:18:46.383Z,99735.44
2023-01-13T01:21:14.382Z,99737.50
2023-01-13T01:23:41.726Z,99750.28
2023-01-13T01:26:15.450Z,99736.94
2023-01-13T01:28:42.789Z,99762.44
2023-01-13T01:31:12.780Z,99762.94
2023-01-13T01:33:41.221Z,99759.53
2023-01-13T01:36:10.161Z,99754.13
2023-01-13T01:38:37.565Z,99780.34
2023-01-13T01:41:04.459Z,99782.03
2023-01-13T01:43:59.589Z,99775.94
2023-01-13T01:46:28.601Z,99780.00
2023-01-13T01:49:00.925Z,99796.03
2023-01-13T01:51:30.235Z,99774.22
2023-01-13T01:53:59.050Z,99803.63
2023-01-13T01:56:25.775Z,99803.28
2023-01-13T01:58:54.296Z,99801.41
2023-01-13T02:01:21.101Z,99819.16
2023-01-13T02:03:56.443Z,99822.38
2023-01-13T02:06:25.177Z,99837.56
2023-01-13T02:08:53.013Z,99829.97
2023-01-13T02:11:52.584Z,99844.16
2023-01-13T02:14:22.232Z,99841.44
2023-01-13T02:17:00.225Z,99837.91
2023-01-13T02:20:09.209Z,99861.25
2023-01-13T02:23:37.709Z,99871.38
2023-01-13T02:26:41.462Z,99874.59
2023-01-13T02:29:51.946Z,99875.97
2023-01-13T02:32:40.211Z,99891.69
2023-01-13T02:35:13.683Z,99874.09
2023-01-13T02:37:43.640Z,99897.28
2023-01-13T02:40:22.716Z,99900.84
2023-01-13T02:43:33.261Z,99914.19
2023-01-13T02:46:17.853Z,99915.19
2023-01-13T02:48:48.518Z,99917.06
2023-01-13T02:51:22.441Z,99916.72
2023-01-13T02:54:05.312Z,99928.91
2023-01-13T02:56:37.454Z,99926.72
2023-01-13T02:59:05.453Z,99939.88
2023-01-13T03:01:32.281Z,99943.59
2023-01-13T03:03:59.323Z,99930.94
2023-01-13T03:06:42.035Z,99957.78
2023-01-13T03:09:23.103Z,99964.72
2023-01-13T03:12:10.609Z,99955.28
2023-01-13T03:14:55.237Z,99975.69
2023-01-13T03:17:49.825Z,99975.88
2023-01-13T03:20:22.232Z,99974.69
2023-01-13T03:23:00.318Z,100016.78
2023-01-13T03:25:34.538Z,100007.50
2023-01-13T03:28:11.003Z,100002.91
2023-01-13T03:30:54.505Z,100008.50
2023-01-13T03:33:34.490Z,100011.88
2023-01-13T03:36:06.346Z,100026.09
2023-01-13T03:38:37.127Z,100028.44
2023-01-13T03:41:09.879Z,100025.75
2023-01-13T03:44:10.864Z,100028.09
2023-01-13T03:46:50.792Z,100046.88
2023-01-13T03:49:22.280Z,100048.56
2023-01-13T03:51:55.925Z,100064.63
2023-01-13T03:54:27.870Z,100071.22
2023-01-13T03:57:04.855Z,100067.16
2023-01-13T03:59:35.693Z,100067.31
2023-01-13T04:02:10.828Z,100070.34
2023-01-13T04:04:49.193Z,100070.34
2023-01-13T04:07:30.834Z,100081.34
2023-01-13T04:10:03.154Z,100070.03
2023-01-13T04:12:55.524Z,100081.84
2023-01-13T04:15:26.767Z,100073.75
2023-01-13T04:17:54.271Z,100086.56
2023-01-13T04:20:21.531Z,100085.03
2023-01-13T04:22:48.455Z,100078.13
2023-01-13T04:25:15.265Z,100090.28
2023-01-13T04:27:43.496Z,100102.44
2023-01-13T04:30:11.110Z,100100.06
2023-01-13T04:32:37.731Z,100102.91
2023-01-13T04:35:04.868Z,100100.56
2023-01-13T04:37:31.607Z,100117.94
2023-01-13T04:39:58.604Z,100112.69
2023-01-13T04:42:25.371Z,100100.34
2023-01-13T04:44:52.314Z,100115.06
2023-01-13T04:47:18.992Z,100116.06
2023-01-13T04:49:45.793Z,100121.81
2023-01-13T04:52:12.531Z,100137.16
2023-01-13T04:54:39.187Z,100136.16
2023-01-13T04:57:06.002Z,100138.03
2023-01-13T04:59:34.540Z,100134.28
2023-01-13T05:02:01.596Z,100141.72
2023-01-13T05:04:28.843Z,100150.00
2023-01-13T05:06:55.605Z,100155.41
2023-01-13T05:09:22.258Z,100161.50
2023-01-13T05:12:07.610Z,100164.03
2023-01-13T05:14:52.507Z,100196.66
2023-01-13T05:17:24.414Z,100164.41
2023-01-13T05:19:51.353Z,100166.25
2023-01-13T05:22:36.884Z,100173.66
2023-01-13T05:25:22.998Z,100177.38
2023-01-13T05:27:51.079Z,100200.03
2023-01-13T05:30:18.247Z,100181.28
2023-01-13T05:32:47.661Z,100194.78
2023-01-13T05:35:16.277Z,100204.56
2023-01-13T05:37:44.665Z,100213.53
2023-01-13T05:40:32.277Z,100210.34
2023-01-13T05:43:21.708Z,100231.19
2023-01-13T05:45:52.700Z,100238.59
2023-01-13T05:48:21.666Z,100225.41
2023-01-13T05:50:49.708Z,100239.75
2023-01-13T05:53:18.111Z,100245.50
2023-01-13T05:55:45.282Z,100260.88
2023-01-13T05:58:13.753Z,100259.69
2023-01-13T06:00:41.900Z,100292.97
2023-01-13T06:03:09.568Z,100279.47
2023-01-13T06:05:36.451Z,100285.88
2023-01-13T06:08:04.974Z,100288.75
2023-01-13T06:10:31.689Z,100312.22
2023-01-13T06:12:58.362Z,100290.75
2023-01-13T06:15:25.659Z,100305.28
2023-01-13T06:17:52.830Z,100298.34
2023-01-13T06:20:20.026Z,100302.91
2023-01-13T06:22:51.805Z,100294.91
2023-01-13T06:25:49.495Z,100320.44
2023-01-13T06:28:16.412Z,100316.19
2023-01-13T06:30:51.745Z,100333.41
2023-01-13T06:33:24.926Z,100335.44
2023-01-13T06:35:58.330Z,100336.28
2023-01-13T06:38:27.887Z,100321.91
2023-01-13T06:40:55.089Z,100334.72
2023-01-13T06:43:22.205Z,100325.63
2023-01-13T06:45:56.720Z,100356.03
2023-01-13T06:48:32.978Z,100339.81
2023-01-13T06:51:00.015Z,100356.03
2023-01-13T06:53:26.790Z,100363.47
2023-01-13T06:55:53.483Z,100374.28
2023-01-13T06:58:20.446Z,100376.09
2023-01-13T07:00:51.821Z,100376.97
2023-01-13T07:03:19.540Z,100375.97
2023-01-13T07:05:53.688Z,100379.69
2023-01-13T07:08:20.888Z,100393.03
2023-01-13T07:10:47.635Z,100385.06
2023-01-13T07:13:33.520Z,100407.84
2023-01-13T07:16:02.541Z,100405.00
2023-01-13T07:18:31.916Z,100410.06
2023-01-13T07:21:01.402Z,100415.66
2023-01-13T07:23:32.567Z,100428.16
2023-01-13T07:26:00.492Z,100421.75
2023-01-13T07:28:29.177Z,100428.84
2023-01-13T07:31:17.076Z,100427.16
2023-01-13T07:33:44.635Z,100461.28
2023-01-13T07:36:11.618Z,100446.09
2023-01-13T07:38:39.920Z,100446.09
2023-01-13T07:41:26.479Z,100451.66
2023-01-13T07:43:53.195Z,100469.84
2023-01-13T07:46:19.880Z,100461.75
2023-01-13T07:48:47.949Z,100495.00
2023-01-13T07:51:15.009Z,100491.47
2023-01-13T07:53:41.789Z,100489.75
2023-01-13T07:56:09.096Z,100499.88
2023-01-13T07:58:37.006Z,100489.91
2023-01-13T08:01:12.597Z,100493.66
2023-01-13T08:03:40.840Z,100505.44
2023-01-13T08:06:07.822Z,100523.50
2023-01-13T08:08:34.647Z,100523.66
2023-01-13T08:11:03.360Z,100524.53
2023-01-13T08:13:30.541Z,100525.66
2023-01-13T08:16:09.373Z,100526.50
2023-01-13T08:18:37.460Z,100524.81
2023-01-13T08:21:06.782Z,100535.59
2023-01-13T08:23:33.635Z,100542.03
2023-01-13T08:26:05.781Z,100551.81
2023-01-13T08:28:33.204Z,100542.41
2023-01-13T08:31:06.819Z,100562.03
2023-01-13T08:33:33.891Z,100575.56
2023-01-13T08:36:06.399Z,100593.47
2023-01-13T08:38:34.625Z,100599.56
2023-01-13T08:41:01.905Z,100585.22
2023-01-13T08:43:28.818Z,100579.66
2023-01-13T08:46:00.911Z,100596.72
2023-01-13T08:48:31.300Z,100597.28
2023-01-13T08:51:07.723Z,100605.38
2023-01-13T08:53:34.755Z,100609.78
2023-01-13T08:56:01.553Z,100627.00
2023-01-13T08:58:28.631Z,100638.81
2023-01-13T09:00:55.377Z,100630.56
2023-01-13T09:03:22.103Z,100645.06
2023-01-13T09:05:49.200Z,100640.53
2023-01-13T09:08:15.871Z,100641.38
2023-01-13T09:10:42.541Z,100635.13
2023-01-13T09:13:13.093Z,100647.47
2023-01-13T09:15:41.925Z,100644.63
2023-01-13T09:18:09.397Z,100658.97
2023-01-13T09:20:36.592Z,100670.63
2023-01-13T09:23:03.844Z,100649.16
2023-01-13T09:25:31.060Z,100665.38
2023-01-13T09:27:58.411Z,100675.34
2023-01-13T09:30:25.215Z,100667.41
2023-01-13T09:33:12.094Z,100679.34
2023-01-13T09:35:38.894Z,100692.88
2023-01-13T09:38:06.516Z,100691.72
2023-01-13T09:40:33.558Z,100681.75
2023-01-13T09:43:38.501Z,100691.41
2023-01-13T09:47:05.238Z,100704.47
2023-01-13T09:49:39.629Z,100704.47
2023-01-13T09:52:27.057Z,100706.03
2023-01-13T09:55:09.584Z,100713.00
2023-01-13T09:57:40.195Z,100719.13
2023-01-13T10:00:27.196Z,100722.53
2023-01-13T10:03:03.010Z,100726.63
2023-01-13T10:05:49.636Z,100729.19
2023-01-13T10:08:29.930Z,100721.78
2023-01-13T10:11:00.596Z,100728.72
2023-01-13T10:13:29.690Z,100735.69
2023-01-13T10:16:12.031Z,100753.47
2023-01-13T10:18:57.631Z,100766.00
2023-01-13T10:21:42.648Z,100745.94
2023-01-13T10:24:29.564Z,100762.69
2023-01-13T10:27:13.000Z,100767.81
2023-01-13T10:29:39.678Z,100773.91
2023-01-13T10:32:06.374Z,100771.78
2023-01-13T10:34:47.323Z,100794.94
2023-01-13T10:37:27.694Z,100803.78
2023-01-13T10:40:00.702Z,100798.94
2023-01-13T10:42:27.217Z,100793.38
2023-01-13T10:45:01.365Z,100835.38
2023-01-13T10:47:34.589Z,100822.53
2023-01-13T10:50:13.311Z,100820.66
2023-01-13T10:53:16.231Z,100831.34
2023-01-13T10:55:44.221Z,100828.50
2023-01-13T10:58:22.875Z,100826.63
2023-01-13T11:01:00.559Z,100833.44
2023-01-13T11:03:37.171Z,100847.56
2023-01-13T11:06:04.624Z,100849.63
2023-01-13T11:08:44.007Z,100857.59
2023-01-13T11:11:45.682Z,100854.44
2023-01-13T11:14:37.200Z,100856.88
2023-01-13T11:17:11.249Z,100857.72
2023-01-13T11:19:49.838Z,100860.25
2023-01-13T11:22:21.827Z,100874.38
2023-01-13T11:25:03.157Z,100864.22
2023-01-13T11:27:32.623Z,100873.22
2023-01-13T11:30:10.144Z,100869.31
2023-01-13T11:33:04.798Z,100871.75
2023-01-13T11:35:36.042Z,100873.16
2023-01-13T11:38:38.556Z,100881.13
2023-01-13T11:41:15.704Z,100884.38
2023-01-13T11:43:53.234Z,100874.25
2023-01-13T11:46:24.672Z,100889.03
2023-01-13T11:48:51.527Z,100885.19
2023-01-13T11:51:32.623Z,100885.88
2023-01-13T11:54:28.237Z,100889.28
2023-01-13T11:57:03.959Z,100890.69
2023-01-13T11:59:45.721Z,100882.25
2023-01-13T12:02:27.480Z,100898.19
2023-01-13T12:05:31.495Z,100889.91
2023-01-13T12:08:18.079Z,100903.31
2023-01-13T12:11:05.437Z,100893.19
2023-01-13T12:13:50.562Z,100900.00
2023-01-13T12:16:30.469Z,100899.69
2023-01-13T12:19:09.445Z,100919.34
2023-01-13T12:21:57.725Z,100916.47
2023-01-13T12:24:33.679Z,100920.41
2023-01-13T12:27:13.182Z,100926.41
2023-01-13T12:29:40.425Z,100930.34
2023-01-13T12:32:13.698Z,100934.16
2023-01-13T12:34:53.914Z,100936.41
2023-01-13T12:37:49.721Z,100945.06
2023-01-13T12:40:33.477Z,100948.66
2023-01-13T12:43:40.038Z,100959.03
2023-01-13T12:46:21.917Z,100961.56
2023-01-13T12:48:54.781Z,100955.69
2023-01-13T12:51:27.344Z,100952.53
2023-01-13T12:53:56.381Z,100960.03
2023-01-13T12:56:44.870Z,100957.53
2023-01-13T12:59:17.572Z,100942.53
2023-01-13T13:01:46.257Z,100952.91
2023-01-13T13:04:43.320Z,100950.59
2023-01-13T13:07:15.661Z,100958.94
2023-01-13T13:09:53.376Z,100947.28
2023-01-13T13:13:00.672Z,100952.78
2023-01-13T13:15:30.126Z,100952.69
2023-01-13T13:17:59.980Z,100948.47
2023-01-13T13:20:55.784Z,100938.00
2023-01-13T13:23:37.694Z,100954.13
2023-01-13T13:26:07.621Z,100951.25
2023-01-13T13:28:38.530Z,100959.22
2023-01-13T13:31:24.962Z,100944.47
2023-01-13T13:34:21.543Z,100951.63
2023-01-13T13:37:07.019Z,100954.38
2023-01-13T13:39:52.659Z,100954.06
2023-01-13T13:42:42.183Z,100966.97
2023-01-13T13:45:35.138Z,100982.16
2023-01-13T13:48:19.751Z,100981.31
2023-01-13T13:50:57.269Z,100987.38
2023-01-13T13:53:33.686Z,100984.81
2023-01-13T13:56:03.061Z,100980.59
2023-01-13T13:58:35.787Z,100971.66
2023-01-13T14:01:06.874Z,100962.00
2023-01-13T14:03:39.874Z,100979.31
2023-01-13T14:06:07.942Z,100973.72
2023-01-13T14:08:38.518Z,100959.31
2023-01-13T14:11:28.245Z,100963.72
2023-01-13T14:14:13.568Z,100950.09
2023-01-13T14:16:41.301Z,100951.06
2023-01-13T14:19:27.089Z,100945.75
2023-01-13T14:21:53.946Z,100947.91
2023-01-13T14:24:22.553Z,100943.53
2023-01-13T14:26:53.442Z,100943.31
2023-01-13T14:29:23.878Z,100946.13
2023-01-13T14:31:53.254Z,100930.63
2023-01-13T14:34:31.442Z,100951.84
2023-01-13T14:37:01.007Z,100936.00
2023-01-13T14:39:40.865Z,100947.50
2023-01-13T14:42:16.514Z,100967.69
2023-01-13T14:44:48.755Z,100945.97
2023-01-13T14:47:26.897Z,100936.97
2023-01-13T14:50:03.330Z,100935.44
2023-01-13T14:52:37.106Z,100929.31
2023-01-13T14:55:08.317Z,100924.03
2023-01-13T14:57:37.104Z,100929.63
2023-01-13T15:00:16.244Z,100939.78
2023-01-13T15:02:50.643Z,100945.06
2023-01-13T15:05:17.540Z,100939.09
2023-01-13T15:08:11.807Z,100952.97
2023-01-13T15:10:47.541Z,100942.28
2023-01-13T15:13:29.562Z,100939.19
2023-01-13T15:15:59.105Z,100932.38
2023-01-13T15:18:26.199Z,100934.69
2023-01-13T15:20:53.249Z,100934.97
2023-01-13T15:23:20.977Z,100931.03
2023-01-13T15:25:48.108Z,100932.34
2023-01-13T15:28:20.051Z,100933.66
2023-01-13T15:30:47.875Z,100922.47
2023-01-13T15:33:15.318Z,100929.19
2023-01-13T15:35:47.848Z,100935.09
2023-01-13T15:38:17.814Z,100950.81
2023-01-13T15:40:44.984Z,100949.41
2023-01-13T15:43:38.125Z,100954.16
2023-01-13T15:46:36.011Z,100963.44
2023-01-13T15:49:13.021Z,100953.59
2023-01-13T15:51:40.324Z,100942.91
2023-01-13T15:54:08.247Z,100945.78
2023-01-13T15:56:37.427Z,100952.34
2023-01-13T15:59:05.551Z,100950.63
2023-01-13T16:01:32.367Z,100959.06
2023-01-13T16:03:59.491Z,100959.38
2023-01-13T16:06:35.615Z,100950.69
2023-01-13T16:09:03.760Z,100943.72
2023-01-13T16:11:30.821Z,100953.88
2023-01-13T16:13:57.786Z,100955.88
2023-01-13T16:16:27.306Z,100964.00
2023-01-13T16:18:54.797Z,100963.31
2023-01-13T16:21:22.062Z,100958.06
2023-01-13T16:23:50.448Z,100953.47
2023-01-13T16:26:19.226Z,100970.56
2023-01-13T16:28:46.093Z,100967.03
2023-01-13T16:31:24.746Z,100964.63
2023-01-13T16:33:51.873Z,100960.19
2023-01-13T16:36:20.359Z,100959.34
2023-01-13T16:38:48.354Z,100957.66
2023-01-13T16:41:15.323Z,100955.09
2023-01-13T16:43:42.469Z,100944.41
2023-01-13T16:46:20.067Z,100945.25
2023-01-13T16:48:47.527Z,100951.66
2023-01-13T16:51:14.321Z,100949.09
2023-01-13T16:53:41.445Z,100941.84
2023-01-13T16:56:31.257Z,100938.44
2023-01-13T16:59:09.580Z,100945.88
2023-01-13T17:01:39.495Z,100940.44
2023-01-13T17:04:07.362Z,100944.88
2023-01-13T17:06:42.084Z,100945.72
2023-01-13T17:09:16.249Z,100956.41
2023-01-13T17:11:43.293Z,100943.69
2023-01-13T17:14:18.005Z,100947.13
2023-01-13T17:16:46.873Z,100933.41
2023-01-13T17:19:14.051Z,100930.69
2023-01-13T17:21:40.899Z,100921.59
2023-01-13T17:24:08.297Z,100935.13
2023-01-13T17:26:44.159Z,100930.56
2023-01-13T17:29:16.504Z,100925.13
2023-01-13T17:31:43.383Z,100927.00
2023-01-13T17:34:12.677Z,100927.69
2023-01-13T17:36:39.870Z,100923.97
2023-01-13T17:39:06.730Z,100923.97
2023-01-13T17:41:33.393Z,100921.13
2023-01-13T17:44:00.218Z,100923.66
2023-01-13T17:46:26.955Z,100933.66
2023-01-13T17:48:54.113Z,100918.09
2023-01-13T17:51:23.009Z,100905.41
2023-01-13T17:53:49.747Z,100897.13
2023-01-13T17:56:17.299Z,100888.84
2023-01-13T17:58:45.682Z,100895.81
2023-01-13T18:01:18.068Z,100881.41
2023-01-13T18:03:45.324Z,100871.28
2023-01-13T18:06:20.865Z,100884.81
2023-01-13T18:08:48.362Z,100894.63
2023-01-13T18:11:18.927Z,100890.25
2023-01-13T18:13:47.365Z,100880.25
2023-01-13T18:16:16.181Z,100858.41
2023-01-13T18:18:45.671Z,100858.41
2023-01-13T18:21:43.893Z,100860.44
2023-01-13T18:24:35.401Z,100861.44
2023-01-13T18:27:23.075Z,100842.78
2023-01-13T18:29:55.079Z,100832.63
2023-01-13T18:32:23.938Z,100825.53
2023-01-13T18:34:56.112Z,100818.41
2023-01-13T18:37:28.587Z,100812.97
2023-01-13T18:39:55.355Z,100803.84
2023-01-13T18:42:40.819Z,100804.84
2023-01-13T18:45:09.378Z,100799.59
2023-01-13T18:47:39.210Z,100797.88
2023-01-13T18:50:06.606Z,100796.31
2023-01-13T18:52:33.390Z,100782.09
2023-01-13T18:55:00.290Z,100768.56
2023-01-13T18:57:27.223Z,100774.25
2023-01-13T18:59:56.757Z,100757.00
2023-01-13T19:02:26.371Z,100764.13
2023-01-13T19:04:53.999Z,100761.44
2023-01-13T19:07:27.104Z,100767.16
2023-01-13T19:09:55.753Z,100750.59
2023-01-13T19:12:26.430Z,100738.75
2023-01-13T19:14:58.044Z,100733.16
2023-01-13T19:18:35.252Z,100725.88
2023-01-13T19:22:04.895Z,100706.91
2023-01-13T19:25:31.334Z,100697.78
2023-01-13T19:28:58.011Z,100690.66
2023-01-13T19:32:24.448Z,100683.53
2023-01-13T19:39:44.864Z,100650.41
2023-01-13T19:43:09.827Z,100635.69
2023-01-13T19:50:28.995Z,100599.75
2023-01-13T19:53:55.422Z,100595.50
2023-01-13T19:57:22.131Z,100587.53
2023-01-13T20:00:50.283Z,100569.75
2023-01-13T20:08:09.229Z,100543.53
2023-01-13T20:11:41.497Z,100533.69
2023-01-13T20:14:08.621Z,100527.44
2023-01-13T20:16:35.284Z,100523.03
2023-01-13T20:19:03.041Z,100507.75
2023-01-13T20:21:29.970Z,100506.94
2023-01-13T20:23:56.986Z,100500.63
2023-01-13T20:26:23.619Z,100499.63
2023-01-13T20:28:50.419Z,100492.50
2023-01-13T20:31:17.203Z,100484.56
2023-01-13T20:33:43.981Z,100481.19
2023-01-13T20:36:25.896Z,100476.59
2023-01-13T20:38:57.210Z,100463.06
2023-01-13T20:41:42.924Z,100451.22
2023-01-13T20:44:11.662Z,100444.63
2023-01-13T20:46:42.945Z,100443.44
2023-01-13T20:49:14.953Z,100432.44
2023-01-13T20:51:42.676Z,100425.16
2023-01-13T20:54:09.439Z,100429.56
2023-01-13T20:56:37.272Z,100424.31
2023-01-13T20:59:04.792Z,100425.16
2023-01-13T21:01:32.310Z,100421.44
2023-01-13T21:04:00.338Z,100408.72
2023-01-13T21:06:30.213Z,100417.88
2023-01-13T21:08:57.335Z,100385.53
2023-01-13T21:11:45.684Z,100394.34
2023-01-13T21:14:44.623Z,100386.06
2023-01-13T21:17:32.456Z,100381.47
2023-01-13T21:19:59.176Z,100372.50
2023-01-13T21:22:26.580Z,100372.34
2023-01-13T21:24:53.502Z,100363.03
2023-01-13T21:27:20.481Z,100359.16
2023-01-13T21:29:47.303Z,100359.81
2023-01-13T21:32:14.295Z,100341.38
2023-01-13T21:34:41.153Z,100337.50
2023-01-13T21:37:07.876Z,100330.38
2023-01-13T21:39:34.579Z,100315.59
2023-01-13T21:42:20.253Z,100308.81
2023-01-13T21:45:05.913Z,100304.94
2023-01-13T21:47:48.612Z,100287.63
2023-01-13T21:50:21.269Z,100294.88
2023-01-13T21:52:49.536Z,100269.09
2023-01-13T21:55:17.225Z,100259.59
2023-01-13T21:57:51.165Z,100244.63
2023-01-13T22:00:19.490Z,100241.75
2023-01-13T22:02:47.099Z,100248.50
2023-01-13T22:05:15.970Z,100236.47
2023-01-13T22:07:43.018Z,100227.50
2023-01-13T22:10:21.547Z,100226.63
2023-01-13T22:12:48.349Z,100220.19
2023-01-13T22:15:16.589Z,100205.41
2023-01-13T22:17:45.670Z,100204.41
2023-01-13T22:20:13.614Z,100202.34
2023-01-13T22:22:41.234Z,100186.72
2023-01-13T22:25:11.117Z,100186.19
2023-01-13T22:27:42.492Z,100183.75
2023-01-13T22:30:13.974Z,100184.06
2023-01-13T22:32:40.788Z,100182.31
2023-01-13T22:35:09.875Z,100171.47
2023-01-13T22:37:37.515Z,100174.88
2023-01-13T22:40:06.055Z,100164.84
2023-01-13T22:42:36.127Z,100152.28
2023-01-13T22:45:04.688Z,100147.22
2023-01-13T22:47:31.433Z,100141.97
2023-01-13T22:49:58.079Z,100129.59
2023-01-13T22:52:27.277Z,100131.66
2023-01-13T22:54:54.128Z,100128.25
2023-01-13T22:57:21.865Z,100112.34
2023-01-13T22:59:50.478Z,100106.59
2023-01-13T23:02:17.241Z,100099.03
2023-01-13T23:04:44.056Z,100088.72
2023-01-13T23:07:10.988Z,100082.78
2023-01-13T23:09:37.754Z,100070.44
2023-01-13T23:12:04.647Z,100056.41
2023-01-13T23:14:31.680Z,100045.03
2023-01-13T23:16:58.466Z,100047.09
2023-01-13T23:19:25.275Z,100039.97
2023-01-13T23:21:52.191Z,100028.31
2023-01-13T23:24:19.021Z,100019.47
2023-01-13T23:26:45.710Z,100014.06
2023-01-13T23:29:13.747Z,100005.28
2023-01-13T23:31:40.897Z,99991.72
2023-01-13T23:34:07.843Z,99981.03
2023-01-13T23:36:37.264Z,99973.06
2023-01-13T23:39:04.242Z,99969.31
2023-01-13T23:41:30.972Z,99958.66
2023-01-13T23:44:02.485Z,99942.19
2023-01-13T23:46:31.237Z,99936.78
2023-01-13T23:48:58.123Z,99932.22
2023-01-13T23:51:26.527Z,99911.53
2023-01-13T23:53:54.202Z,99911.72
2023-01-13T23:56:26.851Z,99910.00
2023-01-13T23:58:54.264Z,99902.72
